Impacts METAR Board INFO
IDs:

KISP - Islip/Macarthur Arpt, NY, US

Updated at: 0304 UTC 21 Oct 2017
Potential Impact None Slight Moderate High
Time20/15Z 20/16Z 20/17Z 20/18Z 20/19Z 20/20Z 20/21Z 20/22Z 20/23Z 21/00Z 21/01Z 21/02Z 21/03Z
VIS10 10 10 10 10 10 10 10 10 10 10 10 10
CIG-- -- -- -- -- -- -- -- -- -- -- -- --
CoverFEWFEWFEWCLRCLRCLRFEWFEWFEWCLRCLRCLRFEW
FltCatVFRVFRVFRVFRVFRVFRVFRVFRVFRVFRVFRVFRVFR
WX--------------------------
WDir33002903102903002903100035020300
WSpd9 4 11 10 12 10 9 6 0 0 6 3 3
WGst-- -- -- 18 -- -- -- -- -- -- -- -- --
Raw hourly METARs
KISP 201456Z 33009KT 10SM FEW250 19/06 A3015 RMK AO2 SLP209 T01940056 51011
KISP 201556Z VRB04KT 10SM FEW250 21/04 A3013 RMK AO2 SLP202 T02060044
KISP 201656Z 29011KT 10SM FEW250 22/02 A3011 RMK AO2 SLP194 T02170017
KISP 201756Z 31010G18KT 10SM CLR 22/01 A3008 RMK AO2 SLP187 T02220011 10222 20139 56022
KISP 201856Z 29012KT 10SM CLR 22/01 A3008 RMK AO2 SLP185 T02220006
KISP 201956Z 30010KT 10SM CLR 22/01 A3008 RMK AO2 SLP185 T02220011
KISP 202056Z 29009KT 10SM FEW250 22/03 A3008 RMK AO2 SLP186 T02170028 55001
KISP 202156Z 31006KT 10SM FEW250 19/04 A3010 RMK AO2 SLP191 T01890039
KISP 202256Z 00000KT 10SM FEW250 15/06 A3013 RMK AO2 SLP202 T01500061
KISP 202356Z 00000KT 10SM CLR 14/07 A3015 RMK AO2 SLP209 T01440067 10222 20133 53023
KISP 210056Z 35006KT 10SM CLR 13/07 A3015 RMK AO2 SLP209 T01330072 $
KISP 210156Z 02003KT 10SM CLR 13/07 A3016 RMK AO2 SLP213 T01330072 $
KISP 210256Z 30003KT 10SM FEW250 13/07 A3019 RMK AO2 SLP223 T01280072 53014 $